createdAt,value
2019-05-07T00:00:34.294Z,1.60
2019-05-07T00:02:39.715Z,1.60
2019-05-07T00:04:45.104Z,1.60
2019-05-07T00:06:52.697Z,1.50
2019-05-07T00:08:57.854Z,1.40
2019-05-07T00:11:03.415Z,1.20
2019-05-07T00:13:08.818Z,1.10
2019-05-07T00:15:14.907Z,0.90
2019-05-07T00:17:22.683Z,0.80
2019-05-07T00:19:27.711Z,0.70
2019-05-07T00:21:33.095Z,0.60
2019-05-07T00:23:38.511Z,0.60
2019-05-07T00:25:43.926Z,0.70
2019-05-07T00:27:49.422Z,0.60
2019-05-07T00:29:54.819Z,0.50
2019-05-07T00:32:02.634Z,0.40
2019-05-07T00:34:07.306Z,0.30
2019-05-07T00:36:23.138Z,0.30
2019-05-07T00:38:31.930Z,0.20
2019-05-07T00:41:12.312Z,0.10
2019-05-07T00:43:24.004Z,0.00
2019-05-07T00:45:36.354Z,0.00
2019-05-07T00:47:42.572Z,-0.10
2019-05-07T00:49:48.258Z,-0.30
2019-05-07T00:51:53.673Z,-0.30
2019-05-07T00:54:00.216Z,-0.30
2019-05-07T00:56:05.606Z,-0.20
2019-05-07T00:58:13.111Z,-0.30
2019-05-07T01:00:18.842Z,-0.30
2019-05-07T01:02:24.321Z,-0.40
2019-05-07T01:04:29.715Z,-0.50
2019-05-07T01:06:35.159Z,-0.50
2019-05-07T01:08:42.871Z,-0.50
2019-05-07T01:10:47.667Z,-0.60
2019-05-07T01:12:53.281Z,-0.60
2019-05-07T01:14:58.863Z,-0.60
2019-05-07T01:17:04.538Z,-0.70
2019-05-07T01:19:12.382Z,-0.70
2019-05-07T01:21:17.563Z,-0.70
2019-05-07T01:23:23.172Z,-0.70
2019-05-07T01:25:28.711Z,-0.70
2019-05-07T01:27:34.144Z,-0.60
2019-05-07T01:29:39.622Z,-0.70
2019-05-07T01:31:52.555Z,-0.70
2019-05-07T01:34:07.886Z,-0.70
2019-05-07T01:36:16.843Z,-0.70
2019-05-07T01:38:22.965Z,-0.70
2019-05-07T01:40:28.522Z,-0.80
2019-05-07T01:42:36.560Z,-0.90
2019-05-07T01:44:42.011Z,-0.90
2019-05-07T01:46:47.663Z,-0.90
2019-05-07T01:48:56.964Z,-0.90
2019-05-07T01:51:00.544Z,-1.00
2019-05-07T01:53:06.008Z,-1.00
2019-05-07T01:55:12.956Z,-1.00
2019-05-07T01:57:18.517Z,-0.90
2019-05-07T01:59:23.916Z,-1.00
2019-05-07T02:01:29.330Z,-1.00
2019-05-07T02:03:59.002Z,-1.00
2019-05-07T02:06:13.064Z,-1.00
2019-05-07T02:08:37.490Z,-1.10
2019-05-07T02:10:57.806Z,-1.10
2019-05-07T02:13:03.214Z,-1.20
2019-05-07T02:15:08.723Z,-1.20
2019-05-07T02:17:14.153Z,-1.30
2019-05-07T02:19:21.945Z,-1.30
2019-05-07T02:21:27.046Z,-1.30
2019-05-07T02:23:33.019Z,-1.30
2019-05-07T02:25:38.622Z,-1.30
2019-05-07T02:27:44.243Z,-1.30
2019-05-07T02:29:49.882Z,-1.30
2019-05-07T02:31:55.311Z,-1.40
2019-05-07T02:34:02.729Z,-1.40
2019-05-07T02:36:08.032Z,-1.40
2019-05-07T02:38:33.901Z,-1.40
2019-05-07T02:40:48.729Z,-1.30
2019-05-07T02:42:54.311Z,-1.20
2019-05-07T02:45:17.727Z,-1.20
2019-05-07T02:47:23.668Z,-1.30
2019-05-07T02:49:53.637Z,-1.30
2019-05-07T02:52:04.185Z,-1.30
2019-05-07T02:54:32.595Z,-1.30
2019-05-07T02:56:37.034Z,-1.30
2019-05-07T02:58:43.465Z,-1.30
2019-05-07T03:00:49.068Z,-1.30
2019-05-07T03:02:54.499Z,-1.30
2019-05-07T03:04:59.939Z,-1.30
2019-05-07T03:07:05.355Z,-1.30
2019-05-07T03:09:14.118Z,-1.20
2019-05-07T03:11:18.239Z,-1.10
2019-05-07T03:13:24.153Z,-1.00
2019-05-07T03:15:32.852Z,-0.90
2019-05-07T03:17:36.940Z,-0.80
2019-05-07T03:19:44.070Z,-0.70
2019-05-07T03:21:55.928Z,-0.60
2019-05-07T03:24:22.991Z,-0.60
2019-05-07T03:26:30.275Z,-0.60
2019-05-07T03:28:53.857Z,-0.50
2019-05-07T03:31:09.757Z,-0.40
2019-05-07T03:33:40.038Z,-0.30
2019-05-07T03:35:48.711Z,-0.30
2019-05-07T03:37:55.335Z,-0.30
2019-05-07T03:40:03.980Z,-0.20
2019-05-07T03:42:07.871Z,-0.20
2019-05-07T03:44:33.586Z,-0.20
2019-05-07T03:46:53.051Z,-0.20
2019-05-07T03:48:45.575Z,-0.20
2019-05-07T03:50:52.849Z,-0.10
2019-05-07T03:52:58.160Z,-0.10
2019-05-07T03:55:03.961Z,-0.10
2019-05-07T03:57:11.058Z,-0.20
2019-05-07T03:59:16.653Z,-0.20
2019-05-07T04:01:24.007Z,-0.30
2019-05-07T04:03:29.176Z,-0.30
2019-05-07T04:05:34.654Z,-0.40
2019-05-07T04:07:42.705Z,-0.40
2019-05-07T04:09:47.286Z,-0.40
2019-05-07T04:11:53.075Z,-0.40
2019-05-07T04:13:58.643Z,-0.40
2019-05-07T04:16:08.022Z,-0.20
2019-05-07T04:18:13.670Z,-0.20
2019-05-07T04:20:19.383Z,0.00
2019-05-07T04:22:28.861Z,0.10
2019-05-07T04:24:53.188Z,0.20
2019-05-07T04:27:04.542Z,0.30
2019-05-07T04:29:14.475Z,0.50
2019-05-07T04:31:23.016Z,0.60
2019-05-07T04:33:33.512Z,0.90
2019-05-07T04:35:58.016Z,1.10
2019-05-07T04:38:06.976Z,1.30
2019-05-07T04:40:13.241Z,1.70
2019-05-07T04:42:18.252Z,1.80
2019-05-07T04:44:24.091Z,1.70
2019-05-07T04:46:29.546Z,1.70
2019-05-07T04:48:35.006Z,1.90
2019-05-07T04:50:44.330Z,1.90
2019-05-07T04:52:49.204Z,2.10
2019-05-07T04:54:54.627Z,2.20
2019-05-07T04:57:03.441Z,2.30
2019-05-07T04:59:07.212Z,2.40
2019-05-07T05:01:14.177Z,2.40
2019-05-07T05:03:24.375Z,2.40
2019-05-07T05:05:32.748Z,2.30
2019-05-07T05:07:37.263Z,2.30
2019-05-07T05:09:42.808Z,2.20
2019-05-07T05:11:48.263Z,2.20
2019-05-07T05:13:53.730Z,2.40
2019-05-07T05:16:02.035Z,2.40
2019-05-07T05:18:07.581Z,2.20
2019-05-07T05:20:13.431Z,2.20
2019-05-07T05:22:42.485Z,2.10
2019-05-07T05:25:07.551Z,2.10
2019-05-07T05:27:13.042Z,2.20
2019-05-07T05:29:18.799Z,2.40
2019-05-07T05:31:24.548Z,2.50
2019-05-07T05:33:32.735Z,2.60
2019-05-07T05:35:38.968Z,3.20
2019-05-07T05:37:44.426Z,3.60
2019-05-07T05:40:03.297Z,4.20
2019-05-07T05:42:03.278Z,4.60
2019-05-07T05:44:22.639Z,5.10
2019-05-07T05:46:29.454Z,5.60
2019-05-07T05:48:34.874Z,6.40
2019-05-07T05:50:53.624Z,6.90
2019-05-07T05:53:07.043Z,6.50
2019-05-07T05:55:15.080Z,6.60
2019-05-07T05:57:36.832Z,6.90
2019-05-07T05:59:55.380Z,6.50
2019-05-07T06:02:27.150Z,6.70
2019-05-07T06:05:06.615Z,7.10
2019-05-07T06:07:18.124Z,6.50
2019-05-07T06:09:34.823Z,6.30
2019-05-07T06:12:12.637Z,7.00
2019-05-07T06:14:43.038Z,8.00
2019-05-07T06:16:55.395Z,9.40
2019-05-07T06:19:17.695Z,11.00
2019-05-07T06:21:42.072Z,11.30
2019-05-07T06:23:53.667Z,11.10
2019-05-07T06:25:58.836Z,10.80
2019-05-07T06:28:04.035Z,11.70
2019-05-07T06:30:09.370Z,13.00
2019-05-07T06:32:16.384Z,13.20
2019-05-07T06:34:22.018Z,12.70
2019-05-07T06:36:27.714Z,12.50
2019-05-07T06:38:38.052Z,12.80
2019-05-07T06:40:59.082Z,14.30
2019-05-07T06:43:13.643Z,14.00
2019-05-07T06:45:32.600Z,12.50
2019-05-07T06:47:37.185Z,13.90
2019-05-07T06:49:42.836Z,13.50
2019-05-07T06:51:48.130Z,12.90
2019-05-07T06:53:53.279Z,13.80
2019-05-07T06:55:59.974Z,14.70
2019-05-07T06:58:06.074Z,15.50
2019-05-07T07:00:31.918Z,15.70
2019-05-07T07:02:44.455Z,16.10
2019-05-07T07:05:12.131Z,14.80
2019-05-07T07:07:45.673Z,16.10
2019-05-07T07:10:02.696Z,17.10
2019-05-07T07:12:12.871Z,16.30
2019-05-07T07:14:18.299Z,16.60
2019-05-07T07:16:23.538Z,16.90
2019-05-07T07:18:28.744Z,18.50
2019-05-07T07:20:33.872Z,17.90
2019-05-07T07:22:39.074Z,15.60
2019-05-07T07:24:44.205Z,13.90
2019-05-07T07:26:49.403Z,13.30
2019-05-07T07:28:54.542Z,12.40
2019-05-07T07:31:13.016Z,11.50
2019-05-07T07:33:18.662Z,11.00
2019-05-07T07:35:23.854Z,11.30
2019-05-07T07:37:33.386Z,11.50
2019-05-07T07:39:38.773Z,11.60
2019-05-07T07:41:48.282Z,11.50
2019-05-07T07:43:53.687Z,11.80
2019-05-07T07:45:59.142Z,11.90
2019-05-07T07:48:04.632Z,11.80
2019-05-07T07:50:10.046Z,11.30
2019-05-07T07:52:15.515Z,11.50
2019-05-07T07:54:22.738Z,12.00
2019-05-07T07:56:56.202Z,11.60
2019-05-07T07:59:13.717Z,11.20
2019-05-07T08:01:29.320Z,11.00
2019-05-07T08:03:34.758Z,10.80
2019-05-07T08:05:40.151Z,10.70
2019-05-07T08:07:45.560Z,10.50
2019-05-07T08:09:52.051Z,10.30
2019-05-07T08:11:57.574Z,10.20
2019-05-07T08:14:02.969Z,10.10
2019-05-07T08:16:08.370Z,10.00
2019-05-07T08:18:13.822Z,10.10
2019-05-07T08:20:22.074Z,10.40
2019-05-07T08:22:27.194Z,10.50
2019-05-07T08:24:32.644Z,10.70
2019-05-07T08:26:38.075Z,10.90
2019-05-07T08:28:43.474Z,11.00
2019-05-07T08:31:06.738Z,11.10
2019-05-07T08:33:17.786Z,11.50
2019-05-07T08:35:27.526Z,11.50
2019-05-07T08:37:32.934Z,11.60
2019-05-07T08:39:38.338Z,12.10
2019-05-07T08:41:43.736Z,11.90
2019-05-07T08:43:51.653Z,12.10
2019-05-07T08:46:22.298Z,12.30
2019-05-07T08:48:33.663Z,13.80
2019-05-07T08:50:39.166Z,14.00
2019-05-07T08:52:44.554Z,13.80
2019-05-07T08:54:51.802Z,13.40
2019-05-07T08:56:57.307Z,12.70
2019-05-07T08:59:02.922Z,12.00
2019-05-07T09:01:11.844Z,12.00
2019-05-07T09:03:36.421Z,11.90
2019-05-07T09:05:42.633Z,14.40
2019-05-07T09:07:47.915Z,17.20
2019-05-07T09:09:53.099Z,18.70
2019-05-07T09:11:58.222Z,16.60
2019-05-07T09:14:03.348Z,14.40
2019-05-07T09:16:08.495Z,13.40
2019-05-07T09:18:13.623Z,12.60
2019-05-07T09:20:18.775Z,11.90
2019-05-07T09:22:23.917Z,14.70
2019-05-07T09:24:29.024Z,16.80
2019-05-07T09:26:41.793Z,18.20
2019-05-07T09:29:15.263Z,19.40
2019-05-07T09:31:33.207Z,19.10
2019-05-07T09:33:42.352Z,18.60
2019-05-07T09:35:52.945Z,20.30
2019-05-07T09:37:58.350Z,20.80
2019-05-07T09:40:03.468Z,20.00
2019-05-07T09:42:08.625Z,19.80
2019-05-07T09:44:13.801Z,18.10
2019-05-07T09:46:20.700Z,17.10
2019-05-07T09:48:25.751Z,16.30
2019-05-07T09:50:32.489Z,17.40
2019-05-07T09:52:37.958Z,16.90
2019-05-07T09:54:43.119Z,17.70
2019-05-07T09:56:48.302Z,18.30
2019-05-07T09:58:53.427Z,20.20
2019-05-07T10:00:58.649Z,20.00
2019-05-07T10:03:03.774Z,18.90
2019-05-07T10:05:09.125Z,18.90
2019-05-07T10:07:14.252Z,19.60
2019-05-07T10:09:19.443Z,17.50
2019-05-07T10:11:33.986Z,18.70
2019-05-07T10:13:44.172Z,19.30
2019-05-07T10:15:49.510Z,19.90
2019-05-07T10:18:01.714Z,20.90
2019-05-07T10:20:18.329Z,22.00
2019-05-07T10:22:13.666Z,21.00
2019-05-07T10:24:18.774Z,21.70
2019-05-07T10:26:23.890Z,21.10
2019-05-07T10:28:29.019Z,21.20
2019-05-07T10:30:34.126Z,22.30
2019-05-07T10:32:39.351Z,22.10
2019-05-07T10:34:44.618Z,21.00
2019-05-07T10:36:49.730Z,22.10
2019-05-07T10:38:55.037Z,21.20
2019-05-07T10:41:02.672Z,20.60
2019-05-07T10:43:07.302Z,20.90
2019-05-07T10:45:42.164Z,23.50
2019-05-07T10:47:55.598Z,22.80
2019-05-07T10:50:31.706Z,19.30
2019-05-07T10:52:25.479Z,17.30
2019-05-07T10:54:30.659Z,15.50
2019-05-07T10:56:35.795Z,15.90
2019-05-07T10:58:41.773Z,16.00
2019-05-07T11:00:47.132Z,16.40
2019-05-07T11:02:52.267Z,18.30
2019-05-07T11:04:57.439Z,18.10
2019-05-07T11:07:02.572Z,20.60
2019-05-07T11:09:09.001Z,20.10
2019-05-07T11:11:14.138Z,20.50
2019-05-07T11:13:19.310Z,21.20
2019-05-07T11:15:24.476Z,22.40
2019-05-07T11:17:39.026Z,21.60
2019-05-07T11:19:44.274Z,22.80
2019-05-07T11:21:49.418Z,21.50
2019-05-07T11:23:54.534Z,21.40
2019-05-07T11:25:59.646Z,21.70
2019-05-07T11:28:04.877Z,20.80
2019-05-07T11:30:11.939Z,20.80
2019-05-07T11:32:17.244Z,20.40
2019-05-07T11:34:22.375Z,19.40
2019-05-07T11:36:27.510Z,17.50
2019-05-07T11:38:33.367Z,16.40
2019-05-07T11:40:38.870Z,17.40
2019-05-07T11:43:02.502Z,18.60
2019-05-07T11:45:08.574Z,19.60
2019-05-07T11:47:25.978Z,20.70
2019-05-07T11:49:52.332Z,21.80
2019-05-07T11:52:02.045Z,21.10
2019-05-07T11:54:14.447Z,20.70
2019-05-07T11:56:19.578Z,21.00
2019-05-07T11:58:24.706Z,19.50
2019-05-07T12:00:37.175Z,16.90
2019-05-07T12:02:42.423Z,16.70
2019-05-07T12:04:47.577Z,19.10
2019-05-07T12:06:52.729Z,20.10
2019-05-07T12:08:57.873Z,20.70
2019-05-07T12:11:02.974Z,21.00
2019-05-07T12:13:08.200Z,20.10
2019-05-07T12:15:13.422Z,19.10
2019-05-07T12:17:18.670Z,17.30
2019-05-07T12:19:23.782Z,16.20
2019-05-07T12:21:28.955Z,15.20
2019-05-07T12:23:34.133Z,17.50
2019-05-07T12:25:39.324Z,18.70
2019-05-07T12:27:44.471Z,18.80
2019-05-07T12:29:49.607Z,18.70
2019-05-07T12:32:19.490Z,18.10
2019-05-07T12:34:49.824Z,16.90
2019-05-07T12:36:54.946Z,17.00
2019-05-07T12:39:02.103Z,17.00
2019-05-07T12:41:25.894Z,17.30
2019-05-07T12:43:31.901Z,17.20
2019-05-07T12:45:37.210Z,17.00
2019-05-07T12:47:42.360Z,16.80
2019-05-07T12:49:47.607Z,17.00
2019-05-07T12:51:58.291Z,17.00
2019-05-07T12:54:19.967Z,17.80
2019-05-07T12:56:25.098Z,17.70
2019-05-07T12:58:32.131Z,18.20
2019-05-07T13:00:54.939Z,17.80
2019-05-07T13:03:14.387Z,18.10
2019-05-07T13:05:19.526Z,17.90
2019-05-07T13:08:01.682Z,18.40
2019-05-07T13:10:08.563Z,18.40
2019-05-07T13:12:13.830Z,17.90
2019-05-07T13:14:18.947Z,17.80
2019-05-07T13:16:24.092Z,17.50
2019-05-07T13:18:29.207Z,17.60
2019-05-07T13:20:34.334Z,17.10
2019-05-07T13:22:39.482Z,17.50
2019-05-07T13:24:44.610Z,17.80
2019-05-07T13:26:51.676Z,17.40
2019-05-07T13:28:56.618Z,17.60
2019-05-07T13:31:02.402Z,17.20
2019-05-07T13:33:07.679Z,15.80
2019-05-07T13:35:13.010Z,16.00
2019-05-07T13:37:22.553Z,15.70
2019-05-07T13:39:42.839Z,16.00
2019-05-07T13:41:55.303Z,16.10
2019-05-07T13:44:22.958Z,16.20
2019-05-07T13:46:29.051Z,16.10
2019-05-07T13:48:36.419Z,16.30
2019-05-07T13:50:42.028Z,16.70
2019-05-07T13:52:47.226Z,17.50
2019-05-07T13:54:52.898Z,17.50
2019-05-07T13:56:58.338Z,17.60
2019-05-07T13:59:04.977Z,17.80
2019-05-07T14:01:32.839Z,17.70
2019-05-07T14:03:38.190Z,18.00
2019-05-07T14:05:43.670Z,18.40
2019-05-07T14:07:48.806Z,17.60
2019-05-07T14:09:53.918Z,17.70
2019-05-07T14:11:59.059Z,18.10
2019-05-07T14:14:04.369Z,17.90
2019-05-07T14:16:11.889Z,17.60
2019-05-07T14:18:16.578Z,17.60
2019-05-07T14:20:22.153Z,17.50
2019-05-07T14:22:27.466Z,17.00
2019-05-07T14:24:32.917Z,17.00
2019-05-07T14:26:38.183Z,17.60
2019-05-07T14:28:43.422Z,17.70
2019-05-07T14:30:48.571Z,17.40
2019-05-07T14:33:01.820Z,16.80
2019-05-07T14:35:13.882Z,16.40
2019-05-07T14:37:25.766Z,16.10
2019-05-07T14:39:33.000Z,16.00
2019-05-07T14:41:37.746Z,16.10
2019-05-07T14:43:57.410Z,16.60
2019-05-07T14:46:02.774Z,16.60
2019-05-07T14:48:07.966Z,16.30
2019-05-07T14:50:13.922Z,16.30
2019-05-07T14:52:30.228Z,16.50
2019-05-07T14:54:26.055Z,16.30
2019-05-07T14:56:32.292Z,16.70
2019-05-07T14:58:37.569Z,16.80
2019-05-07T15:00:42.908Z,16.70
2019-05-07T15:02:48.150Z,16.70
2019-05-07T15:04:53.288Z,16.30
2019-05-07T15:06:58.442Z,16.20
2019-05-07T15:09:04.810Z,16.00
2019-05-07T15:11:09.958Z,16.10
2019-05-07T15:13:15.098Z,16.40
2019-05-07T15:15:21.963Z,16.40
2019-05-07T15:17:41.834Z,16.10
2019-05-07T15:19:46.663Z,16.10
2019-05-07T15:21:54.220Z,16.20
2019-05-07T15:23:59.397Z,15.90
2019-05-07T15:26:05.000Z,15.60
2019-05-07T15:28:12.137Z,15.60
2019-05-07T15:30:17.438Z,15.20
2019-05-07T15:32:22.655Z,15.30
2019-05-07T15:34:27.827Z,15.10
2019-05-07T15:36:32.977Z,15.10
2019-05-07T15:38:38.122Z,15.00
2019-05-07T15:40:43.291Z,14.60
2019-05-07T15:42:48.483Z,14.60
2019-05-07T15:44:53.656Z,14.60
2019-05-07T15:47:02.460Z,14.80
2019-05-07T15:49:07.312Z,14.80
2019-05-07T15:51:12.544Z,14.90
2019-05-07T15:53:27.275Z,14.90
2019-05-07T15:55:32.483Z,15.10
2019-05-07T15:57:38.682Z,15.10
2019-05-07T15:59:44.107Z,14.80
2019-05-07T16:01:52.105Z,14.80
2019-05-07T16:03:57.751Z,14.60
2019-05-07T16:06:03.885Z,14.60
2019-05-07T16:08:12.348Z,14.50
2019-05-07T16:10:18.213Z,14.40
2019-05-07T16:12:25.611Z,14.30
2019-05-07T16:14:32.106Z,14.50
2019-05-07T16:16:42.719Z,14.60
2019-05-07T16:19:06.279Z,14.70
2019-05-07T16:21:12.092Z,14.50
2019-05-07T16:23:18.272Z,14.40
2019-05-07T16:25:23.697Z,14.30
2019-05-07T16:27:29.013Z,14.20
2019-05-07T16:29:35.882Z,14.00
2019-05-07T16:31:41.226Z,13.80
2019-05-07T16:33:46.743Z,13.60
2019-05-07T16:35:51.926Z,13.60
2019-05-07T16:37:57.055Z,13.80
2019-05-07T16:40:04.572Z,13.70
2019-05-07T16:42:09.906Z,13.60
2019-05-07T16:44:15.098Z,13.40
2019-05-07T16:46:22.263Z,13.10
2019-05-07T16:48:27.358Z,12.90
2019-05-07T16:50:32.944Z,12.70
2019-05-07T16:52:41.856Z,12.60
2019-05-07T16:54:46.525Z,12.40
2019-05-07T16:57:09.712Z,12.30
2019-05-07T16:59:15.190Z,12.10
2019-05-07T17:01:22.212Z,12.00
2019-05-07T17:03:33.166Z,11.90
2019-05-07T17:05:38.565Z,11.80
2019-05-07T17:08:03.064Z,11.60
2019-05-07T17:10:09.092Z,11.50
2019-05-07T17:12:16.323Z,11.60
2019-05-07T17:14:21.758Z,11.40
2019-05-07T17:16:27.162Z,11.40
2019-05-07T17:18:32.841Z,11.30
2019-05-07T17:20:42.982Z,11.30
2019-05-07T17:22:48.546Z,11.20
2019-05-07T17:24:53.955Z,11.10
2019-05-07T17:26:59.358Z,11.30
2019-05-07T17:29:04.743Z,11.20
2019-05-07T17:31:12.239Z,11.10
2019-05-07T17:33:17.298Z,11.10
2019-05-07T17:35:22.894Z,11.00
2019-05-07T17:37:28.296Z,10.90
2019-05-07T17:39:33.698Z,10.70
2019-05-07T17:41:39.102Z,10.50
2019-05-07T17:43:44.774Z,10.70
2019-05-07T17:45:52.370Z,10.70
2019-05-07T17:47:57.883Z,10.60
2019-05-07T17:50:05.342Z,10.60
2019-05-07T17:52:12.657Z,10.60
2019-05-07T17:54:18.216Z,10.60
2019-05-07T17:56:23.754Z,10.60
2019-05-07T17:58:29.199Z,10.70
2019-05-07T18:00:36.601Z,10.70
2019-05-07T18:03:02.472Z,10.60
2019-05-07T18:05:07.450Z,10.50
2019-05-07T18:07:13.867Z,10.40
2019-05-07T18:09:19.361Z,10.30
2019-05-07T18:11:24.803Z,10.30
2019-05-07T18:13:32.312Z,10.30
2019-05-07T18:15:37.366Z,10.30
2019-05-07T18:18:03.059Z,10.20
2019-05-07T18:20:09.721Z,10.10
2019-05-07T18:22:15.339Z,10.00
2019-05-07T18:24:22.354Z,10.00
2019-05-07T18:26:30.918Z,10.00
2019-05-07T18:28:35.286Z,9.90
2019-05-07T18:30:40.968Z,9.80
2019-05-07T18:32:51.993Z,9.90
2019-05-07T18:34:57.782Z,9.80
2019-05-07T18:37:03.261Z,9.80
2019-05-07T18:39:09.703Z,9.70
2019-05-07T18:41:15.287Z,9.70
2019-05-07T18:43:22.548Z,9.70
2019-05-07T18:45:28.023Z,9.60
2019-05-07T18:47:33.426Z,9.50
2019-05-07T18:49:38.902Z,9.50
2019-05-07T18:51:44.651Z,9.50
2019-05-07T18:53:51.979Z,9.40
2019-05-07T18:55:57.351Z,9.30
2019-05-07T18:58:02.993Z,9.30
2019-05-07T19:00:13.934Z,9.30
2019-05-07T19:02:19.558Z,9.20
2019-05-07T19:04:25.181Z,9.20
2019-05-07T19:06:31.855Z,9.20
2019-05-07T19:08:37.450Z,9.10
2019-05-07T19:10:43.054Z,9.10
2019-05-07T19:12:48.548Z,9.20
2019-05-07T19:14:54.018Z,9.10
2019-05-07T19:16:59.470Z,9.20
2019-05-07T19:19:05.142Z,9.10
2019-05-07T19:21:10.615Z,9.20
2019-05-07T19:23:16.024Z,9.10
2019-05-07T19:25:21.650Z,9.00
2019-05-07T19:27:27.084Z,9.00
2019-05-07T19:29:32.748Z,9.00
2019-05-07T19:31:38.322Z,9.20
2019-05-07T19:33:43.689Z,9.40
2019-05-07T19:35:49.076Z,9.30
2019-05-07T19:37:54.462Z,9.20
2019-05-07T19:40:01.891Z,9.10
2019-05-07T19:42:07.014Z,8.90
2019-05-07T19:44:12.967Z,9.00
2019-05-07T19:46:18.411Z,8.80
2019-05-07T19:48:23.900Z,8.50
2019-05-07T19:50:29.390Z,8.30
2019-05-07T19:52:34.816Z,8.00
2019-05-07T19:54:40.362Z,7.80
2019-05-07T19:56:45.774Z,7.70
2019-05-07T19:58:52.631Z,7.60
2019-05-07T20:00:58.275Z,7.50
2019-05-07T20:03:05.170Z,7.40
2019-05-07T20:05:12.145Z,7.40
2019-05-07T20:07:17.787Z,7.40
2019-05-07T20:09:27.698Z,7.30
2019-05-07T20:11:43.310Z,7.00
2019-05-07T20:13:48.894Z,6.90
2019-05-07T20:16:02.847Z,6.60
2019-05-07T20:18:12.349Z,6.40
2019-05-07T20:20:17.805Z,6.30
2019-05-07T20:22:23.478Z,6.20
2019-05-07T20:24:32.962Z,6.10
2019-05-07T20:26:38.718Z,6.00
2019-05-07T20:28:44.227Z,5.90
2019-05-07T20:30:49.954Z,5.90
2019-05-07T20:32:55.455Z,5.90
2019-05-07T20:35:02.732Z,5.80
2019-05-07T20:37:08.339Z,5.60
2019-05-07T20:39:13.954Z,5.50
2019-05-07T20:41:19.434Z,5.40
2019-05-07T20:43:33.329Z,5.50
2019-05-07T20:45:36.918Z,5.40
2019-05-07T20:47:42.634Z,5.30
2019-05-07T20:49:51.286Z,5.30
2019-05-07T20:51:56.746Z,5.10
2019-05-07T20:54:36.505Z,5.00
2019-05-07T20:56:52.794Z,5.10
2019-05-07T20:58:58.191Z,4.80
2019-05-07T21:01:03.699Z,4.60
2019-05-07T21:03:23.816Z,4.60
2019-05-07T21:05:29.134Z,4.60
2019-05-07T21:07:36.014Z,4.50
2019-05-07T21:09:44.899Z,4.60
2019-05-07T21:11:50.776Z,4.60
2019-05-07T21:13:56.232Z,4.50
2019-05-07T21:16:03.270Z,4.50
2019-05-07T21:18:09.052Z,4.60
2019-05-07T21:20:14.556Z,4.50
2019-05-07T21:22:22.352Z,4.50
2019-05-07T21:24:27.047Z,4.40
2019-05-07T21:26:32.896Z,4.50
2019-05-07T21:28:38.398Z,4.50
2019-05-07T21:30:44.032Z,4.50
2019-05-07T21:32:51.667Z,4.40
2019-05-07T21:34:56.998Z,4.40
2019-05-07T21:37:03.237Z,4.30
2019-05-07T21:39:08.990Z,4.20
2019-05-07T21:41:15.176Z,4.20
2019-05-07T21:43:23.315Z,4.10
2019-05-07T21:45:29.190Z,4.00
2019-05-07T21:47:34.607Z,4.20
2019-05-07T21:49:40.219Z,4.00
2019-05-07T21:51:45.633Z,4.00
2019-05-07T21:54:06.317Z,3.90
2019-05-07T21:56:39.546Z,3.90
2019-05-07T21:58:54.047Z,3.80
2019-05-07T22:01:03.470Z,3.90
2019-05-07T22:03:12.649Z,3.80
2019-05-07T22:05:18.531Z,3.60
2019-05-07T22:07:24.347Z,3.60
2019-05-07T22:09:29.791Z,3.50
2019-05-07T22:11:35.374Z,3.60
2019-05-07T22:13:43.286Z,3.40
2019-05-07T22:15:48.074Z,3.40
2019-05-07T22:17:53.490Z,3.30
2019-05-07T22:19:58.929Z,3.30
2019-05-07T22:22:04.586Z,3.20
2019-05-07T22:24:10.062Z,3.10
2019-05-07T22:26:22.671Z,3.10
2019-05-07T22:28:22.649Z,3.10
2019-05-07T22:30:35.238Z,3.00
2019-05-07T22:33:04.294Z,3.00
2019-05-07T22:35:16.722Z,2.90
2019-05-07T22:37:22.141Z,2.90
2019-05-07T22:39:27.627Z,2.80
2019-05-07T22:41:33.002Z,2.80
2019-05-07T22:43:38.399Z,2.80
2019-05-07T22:45:43.819Z,2.80
2019-05-07T22:47:49.587Z,2.80
2019-05-07T22:49:54.977Z,2.80
2019-05-07T22:52:02.336Z,2.70
2019-05-07T22:54:07.599Z,2.70
2019-05-07T22:56:14.143Z,2.60
2019-05-07T22:58:33.299Z,2.60
2019-05-07T23:00:42.822Z,2.60
2019-05-07T23:02:48.290Z,2.60
2019-05-07T23:04:53.696Z,2.60
2019-05-07T23:06:59.098Z,2.60
2019-05-07T23:09:05.462Z,2.50
2019-05-07T23:11:12.264Z,2.50
2019-05-07T23:13:18.026Z,2.40
2019-05-07T23:15:23.430Z,2.40
2019-05-07T23:17:28.866Z,2.30
2019-05-07T23:19:34.328Z,2.30
2019-05-07T23:21:39.736Z,2.40
2019-05-07T23:23:45.210Z,2.40
2019-05-07T23:25:52.404Z,2.30
2019-05-07T23:27:57.875Z,2.30
2019-05-07T23:30:03.395Z,2.30
2019-05-07T23:32:08.810Z,2.30
2019-05-07T23:34:14.254Z,2.20
2019-05-07T23:36:19.687Z,2.10
2019-05-07T23:38:25.090Z,2.20
2019-05-07T23:40:47.087Z,2.10
2019-05-07T23:42:53.386Z,2.10
2019-05-07T23:44:58.795Z,2.00
2019-05-07T23:47:04.262Z,2.00
2019-05-07T23:49:09.659Z,1.90
2019-05-07T23:51:15.146Z,1.90
2019-05-07T23:53:22.503Z,1.80
2019-05-07T23:55:27.686Z,1.60
2019-05-07T23:57:33.075Z,1.50
2019-05-07T23:59:38.511Z,1.50
